createdAt,value
2023-03-16T00:00:52.248Z,3.30
2023-03-16T00:03:21.743Z,3.30
2023-03-16T00:05:49.948Z,3.20
2023-03-16T00:08:17.551Z,3.20
2023-03-16T00:10:46.957Z,3.20
2023-03-16T00:13:17.471Z,3.20
2023-03-16T00:16:04.291Z,3.10
2023-03-16T00:18:31.195Z,3.10
2023-03-16T00:20:59.741Z,3.10
2023-03-16T00:23:29.361Z,3.10
2023-03-16T00:26:00.133Z,3.00
2023-03-16T00:28:31.010Z,2.80
2023-03-16T00:30:59.100Z,2.80
2023-03-16T00:33:26.630Z,2.90
2023-03-16T00:36:01.915Z,2.90
2023-03-16T00:38:31.185Z,2.80
2023-03-16T00:40:58.760Z,2.90
2023-03-16T00:43:27.330Z,2.90
2023-03-16T00:46:06.485Z,2.90
2023-03-16T00:48:38.003Z,2.80
2023-03-16T00:51:07.371Z,2.70
2023-03-16T00:53:34.598Z,2.70
2023-03-16T00:56:04.243Z,2.70
2023-03-16T00:58:35.765Z,2.80
2023-03-16T01:01:06.854Z,2.90
2023-03-16T01:03:34.104Z,2.90
2023-03-16T01:06:10.155Z,2.80
2023-03-16T01:08:37.704Z,2.90
2023-03-16T01:11:06.132Z,2.80
2023-03-16T01:13:32.974Z,2.60
2023-03-16T01:16:00.398Z,2.40
2023-03-16T01:18:28.544Z,2.40
2023-03-16T01:20:55.010Z,2.40
2023-03-16T01:23:22.996Z,2.40
2023-03-16T01:25:54.089Z,2.50
2023-03-16T01:28:25.536Z,2.70
2023-03-16T01:30:57.481Z,2.80
2023-03-16T01:33:26.682Z,2.70
2023-03-16T01:36:08.043Z,2.50
2023-03-16T01:38:43.536Z,2.50
2023-03-16T01:41:10.696Z,2.40
2023-03-16T01:43:39.721Z,2.60
2023-03-16T01:46:06.315Z,2.60
2023-03-16T01:48:45.107Z,2.60
2023-03-16T01:51:21.027Z,2.40
2023-03-16T01:53:52.976Z,2.40
2023-03-16T01:56:25.644Z,2.40
2023-03-16T01:58:58.666Z,2.40
2023-03-16T02:01:29.186Z,2.30
2023-03-16T02:04:07.950Z,2.20
2023-03-16T02:06:37.232Z,2.10
2023-03-16T02:09:05.323Z,2.10
2023-03-16T02:11:32.369Z,2.10
2023-03-16T02:14:10.301Z,2.30
2023-03-16T02:16:37.027Z,2.30
2023-03-16T02:19:05.013Z,2.20
2023-03-16T02:21:54.429Z,2.20
2023-03-16T02:24:21.738Z,2.20
2023-03-16T02:27:01.816Z,2.20
2023-03-16T02:30:01.082Z,2.20
2023-03-16T02:32:33.434Z,2.20
2023-03-16T02:35:02.461Z,2.20
2023-03-16T02:37:29.421Z,2.30
2023-03-16T02:39:55.901Z,2.30
2023-03-16T02:42:26.363Z,2.20
2023-03-16T02:44:59.071Z,2.10
2023-03-16T02:47:43.304Z,2.10
2023-03-16T02:50:12.700Z,2.10
2023-03-16T02:52:39.953Z,2.20
2023-03-16T02:55:07.685Z,2.10
2023-03-16T02:57:34.641Z,2.10
2023-03-16T03:00:16.859Z,2.00
2023-03-16T03:02:46.070Z,2.00
2023-03-16T03:05:13.070Z,2.00
2023-03-16T03:07:39.612Z,2.00
2023-03-16T03:10:08.152Z,2.10
2023-03-16T03:12:34.940Z,2.10
2023-03-16T03:15:05.297Z,2.10
2023-03-16T03:17:39.038Z,2.10
2023-03-16T03:20:13.931Z,2.10
2023-03-16T03:22:40.751Z,2.30
2023-03-16T03:25:09.056Z,2.20
2023-03-16T03:27:35.921Z,2.20
2023-03-16T03:30:06.335Z,2.20
2023-03-16T03:32:32.910Z,2.30
2023-03-16T03:34:59.489Z,2.20
2023-03-16T03:37:26.066Z,2.10
2023-03-16T03:39:53.466Z,2.10
2023-03-16T03:42:20.382Z,2.10
2023-03-16T03:44:46.987Z,2.10
2023-03-16T03:47:13.538Z,2.10
2023-03-16T03:49:40.175Z,2.10
2023-03-16T03:52:06.703Z,2.20
2023-03-16T03:54:34.103Z,2.20
2023-03-16T03:57:08.649Z,2.30
2023-03-16T03:59:40.733Z,2.20
2023-03-16T04:02:25.995Z,2.20
2023-03-16T04:04:54.472Z,2.30
2023-03-16T04:07:23.123Z,2.20
2023-03-16T04:09:53.462Z,2.20
2023-03-16T04:12:26.255Z,2.20
2023-03-16T04:14:53.269Z,2.10
2023-03-16T04:17:22.256Z,2.10
2023-03-16T04:19:50.311Z,2.20
2023-03-16T04:22:17.738Z,2.20
2023-03-16T04:24:46.019Z,2.20
2023-03-16T04:27:13.601Z,2.20
2023-03-16T04:29:40.190Z,2.20
2023-03-16T04:32:07.959Z,2.20
2023-03-16T04:34:35.180Z,2.20
2023-03-16T04:37:04.527Z,2.20
2023-03-16T04:39:33.368Z,2.30
2023-03-16T04:42:01.591Z,2.20
2023-03-16T04:44:28.148Z,2.10
2023-03-16T04:46:55.022Z,2.00
2023-03-16T04:49:23.413Z,2.00
2023-03-16T04:51:50.200Z,2.00
2023-03-16T04:54:19.293Z,2.00
2023-03-16T04:56:45.779Z,2.00
2023-03-16T04:59:28.323Z,2.00
2023-03-16T05:02:04.730Z,2.00
2023-03-16T05:04:31.940Z,2.00
2023-03-16T05:06:58.500Z,2.00
2023-03-16T05:09:29.588Z,1.90
2023-03-16T05:11:56.106Z,1.90
2023-03-16T05:14:22.709Z,1.90
2023-03-16T05:17:14.796Z,2.00
2023-03-16T05:19:42.590Z,2.00
2023-03-16T05:22:10.081Z,2.00
2023-03-16T05:24:38.805Z,2.10
2023-03-16T05:27:05.512Z,2.10
2023-03-16T05:29:32.152Z,2.10
2023-03-16T05:31:59.521Z,2.20
2023-03-16T05:34:28.944Z,2.20
2023-03-16T05:36:55.440Z,2.20
2023-03-16T05:39:23.566Z,2.20
2023-03-16T05:41:50.520Z,2.10
2023-03-16T05:44:24.550Z,2.10
2023-03-16T05:47:01.730Z,2.20
2023-03-16T05:49:31.276Z,2.30
2023-03-16T05:51:59.691Z,2.30
2023-03-16T05:54:27.017Z,2.30
2023-03-16T05:56:54.571Z,2.30
2023-03-16T05:59:21.265Z,2.40
2023-03-16T06:01:53.075Z,2.50
2023-03-16T06:04:21.792Z,2.50
2023-03-16T06:06:48.678Z,2.60
2023-03-16T06:09:20.553Z,2.70
2023-03-16T06:11:47.096Z,2.80
2023-03-16T06:14:15.983Z,2.80
2023-03-16T06:16:42.912Z,2.90
2023-03-16T06:19:10.591Z,3.00
2023-03-16T06:21:37.178Z,3.00
2023-03-16T06:24:09.233Z,3.00
2023-03-16T06:26:36.551Z,3.10
2023-03-16T06:29:05.791Z,3.20
2023-03-16T06:31:34.814Z,3.20
2023-03-16T06:34:02.568Z,3.40
2023-03-16T06:36:30.689Z,3.60
2023-03-16T06:39:00.022Z,3.70
2023-03-16T06:41:32.157Z,3.70
2023-03-16T06:43:58.679Z,3.80
2023-03-16T06:46:25.251Z,3.90
2023-03-16T06:48:52.183Z,3.90
2023-03-16T06:51:19.318Z,3.90
2023-03-16T06:53:47.011Z,3.90
2023-03-16T06:56:18.835Z,4.00
2023-03-16T06:58:48.610Z,3.90
2023-03-16T07:01:16.179Z,3.90
2023-03-16T07:03:42.715Z,3.90
2023-03-16T07:06:29.442Z,4.00
2023-03-16T07:08:55.971Z,4.00
2023-03-16T07:11:23.610Z,4.10
2023-03-16T07:13:51.487Z,4.20
2023-03-16T07:16:19.350Z,4.20
2023-03-16T07:18:46.076Z,4.20
2023-03-16T07:21:15.366Z,4.30
2023-03-16T07:23:45.236Z,4.30
2023-03-16T07:26:14.312Z,4.40
2023-03-16T07:28:50.129Z,4.60
2023-03-16T07:31:17.190Z,4.80
2023-03-16T07:33:44.938Z,5.00
2023-03-16T07:36:16.854Z,5.20
2023-03-16T07:38:50.603Z,5.30
2023-03-16T07:41:17.803Z,5.50
2023-03-16T07:43:45.459Z,5.70
2023-03-16T07:46:15.190Z,5.70
2023-03-16T07:48:43.194Z,5.90
2023-03-16T07:51:13.444Z,6.00
2023-03-16T07:53:41.539Z,6.30
2023-03-16T07:59:36.829Z,6.50
2023-03-16T08:02:04.022Z,6.40
2023-03-16T08:04:31.471Z,6.30
2023-03-16T08:07:01.083Z,6.40
2023-03-16T08:09:41.333Z,6.50
2023-03-16T08:12:11.396Z,6.80
2023-03-16T08:14:38.756Z,7.00
2023-03-16T08:17:14.900Z,7.30
2023-03-16T08:19:43.032Z,7.40
2023-03-16T08:22:10.678Z,7.50
2023-03-16T08:24:40.997Z,7.70
2023-03-16T08:27:09.468Z,7.60
2023-03-16T08:29:38.370Z,7.60
2023-03-16T08:32:07.260Z,7.70
2023-03-16T08:34:39.984Z,7.80
2023-03-16T08:37:07.525Z,7.90
2023-03-16T08:39:35.617Z,8.00
2023-03-16T08:42:08.283Z,8.00
2023-03-16T08:44:41.452Z,8.10
2023-03-16T08:47:08.189Z,8.20
2023-03-16T08:49:35.568Z,8.50
2023-03-16T08:52:06.468Z,8.60
2023-03-16T08:54:33.580Z,8.80
2023-03-16T08:57:00.411Z,8.90
2023-03-16T08:59:30.101Z,8.80
2023-03-16T09:01:57.445Z,8.90
2023-03-16T09:04:23.958Z,9.00
2023-03-16T09:07:07.926Z,9.10
2023-03-16T09:09:36.213Z,9.20
2023-03-16T09:12:04.189Z,9.40
2023-03-16T09:14:30.858Z,9.60
2023-03-16T09:16:57.436Z,9.50
2023-03-16T09:19:24.964Z,9.50
2023-03-16T09:21:51.428Z,9.80
2023-03-16T09:24:17.874Z,9.90
2023-03-16T09:26:44.377Z,9.90
2023-03-16T09:29:11.959Z,10.10
2023-03-16T09:31:38.565Z,10.40
2023-03-16T09:34:05.160Z,10.70
2023-03-16T09:36:31.584Z,10.80
2023-03-16T09:38:58.063Z,10.90
2023-03-16T09:41:39.034Z,10.80
2023-03-16T09:44:34.353Z,11.00
2023-03-16T09:47:03.618Z,11.10
2023-03-16T09:49:36.866Z,11.30
2023-03-16T09:52:18.381Z,11.60
2023-03-16T09:54:59.671Z,11.70
2023-03-16T09:57:32.251Z,11.90
2023-03-16T10:00:27.628Z,12.10
2023-03-16T10:03:09.722Z,12.30
2023-03-16T10:05:38.610Z,12.30
2023-03-16T10:08:22.191Z,12.40
2023-03-16T10:11:10.301Z,12.60
2023-03-16T10:13:46.613Z,12.60
2023-03-16T10:16:32.655Z,12.70
2023-03-16T10:19:11.889Z,12.80
2023-03-16T10:21:41.054Z,12.90
2023-03-16T10:24:27.094Z,12.80
2023-03-16T10:27:00.172Z,12.80
2023-03-16T10:29:33.998Z,12.80
2023-03-16T10:32:11.603Z,12.90
2023-03-16T10:34:38.301Z,12.90
2023-03-16T10:37:05.946Z,13.00
2023-03-16T10:39:36.838Z,13.00
2023-03-16T10:42:03.331Z,12.80
2023-03-16T10:44:30.024Z,12.80
2023-03-16T10:47:05.219Z,12.90
2023-03-16T10:49:44.235Z,13.00
2023-03-16T10:52:22.900Z,13.20
2023-03-16T10:54:54.686Z,13.30
2023-03-16T10:57:30.769Z,13.30
2023-03-16T11:00:09.759Z,13.20
2023-03-16T11:02:36.272Z,13.10
2023-03-16T11:05:28.429Z,13.20
2023-03-16T11:07:54.981Z,13.20
2023-03-16T11:10:36.194Z,13.30
2023-03-16T11:13:10.124Z,13.20
2023-03-16T11:15:40.874Z,13.30
2023-03-16T11:18:29.488Z,13.40
2023-03-16T11:20:58.082Z,13.40
2023-03-16T11:23:34.337Z,13.50
2023-03-16T11:26:05.828Z,13.50
2023-03-16T11:28:38.663Z,13.60
2023-03-16T11:31:27.479Z,13.60
2023-03-16T11:33:55.545Z,13.70
2023-03-16T11:36:27.923Z,13.70
2023-03-16T11:39:12.884Z,14.00
2023-03-16T11:42:10.013Z,14.00
2023-03-16T11:44:38.552Z,14.10
2023-03-16T11:47:23.742Z,14.10
2023-03-16T11:50:28.479Z,14.30
2023-03-16T11:52:57.883Z,14.10
2023-03-16T11:55:33.277Z,14.00
2023-03-16T11:57:59.732Z,14.00
2023-03-16T12:00:47.751Z,14.20
2023-03-16T12:03:42.166Z,14.10
2023-03-16T12:06:22.110Z,14.30
2023-03-16T12:08:58.804Z,14.50
2023-03-16T12:11:42.346Z,14.50
2023-03-16T12:14:30.220Z,14.40
2023-03-16T12:17:27.664Z,14.40
2023-03-16T12:19:57.152Z,14.40
2023-03-16T12:22:29.754Z,14.20
2023-03-16T12:24:56.352Z,14.10
2023-03-16T12:27:26.740Z,14.30
2023-03-16T12:30:03.961Z,14.50
2023-03-16T12:32:42.165Z,14.50
2023-03-16T12:35:42.635Z,14.50
2023-03-16T12:38:22.440Z,14.60
2023-03-16T12:41:07.423Z,14.50
2023-03-16T12:44:01.655Z,14.60
2023-03-16T12:46:38.586Z,14.70
2023-03-16T12:49:07.605Z,14.80
2023-03-16T12:51:38.792Z,15.00
2023-03-16T12:54:06.184Z,15.20
2023-03-16T12:56:36.700Z,15.40
2023-03-16T12:59:05.866Z,15.40
2023-03-16T13:01:59.182Z,15.60
2023-03-16T13:04:40.492Z,15.70
2023-03-16T13:07:31.504Z,15.80
2023-03-16T13:10:02.669Z,15.90
2023-03-16T13:12:32.842Z,15.90
2023-03-16T13:14:59.545Z,16.00
2023-03-16T13:17:32.155Z,16.10
2023-03-16T13:19:58.772Z,16.00
2023-03-16T13:22:31.456Z,15.70
2023-03-16T13:25:18.688Z,15.80
2023-03-16T13:27:52.827Z,16.10
2023-03-16T13:30:23.406Z,16.30
2023-03-16T13:33:00.417Z,16.30
2023-03-16T13:35:29.218Z,16.30
2023-03-16T13:38:05.649Z,16.40
2023-03-16T13:40:32.940Z,16.50
2023-03-16T13:42:59.491Z,16.10
2023-03-16T13:45:33.313Z,16.00
2023-03-16T13:48:02.131Z,15.90
2023-03-16T13:50:33.058Z,15.80
2023-03-16T13:53:04.407Z,15.90
2023-03-16T13:55:33.780Z,16.00
2023-03-16T13:58:01.794Z,16.00
2023-03-16T14:00:37.016Z,16.10
2023-03-16T14:03:14.542Z,16.00
2023-03-16T14:05:41.462Z,15.90
2023-03-16T14:08:21.771Z,16.00
2023-03-16T14:10:49.152Z,16.00
2023-03-16T14:13:27.857Z,16.10
2023-03-16T14:15:57.781Z,16.10
2023-03-16T14:18:32.051Z,16.00
2023-03-16T14:20:58.710Z,16.00
2023-03-16T14:23:34.081Z,16.00
2023-03-16T14:26:12.612Z,15.80
2023-03-16T14:28:39.936Z,15.70
2023-03-16T14:31:13.294Z,15.50
2023-03-16T14:33:42.717Z,15.50
2023-03-16T14:36:16.374Z,15.60
2023-03-16T14:38:54.261Z,15.50
2023-03-16T14:41:21.344Z,15.40
2023-03-16T14:43:54.419Z,15.40
2023-03-16T14:46:28.443Z,15.50
2023-03-16T14:49:03.643Z,15.40
2023-03-16T14:51:31.909Z,15.30
2023-03-16T14:53:58.466Z,15.30
2023-03-16T14:56:34.151Z,15.20
2023-03-16T14:59:01.079Z,15.00
2023-03-16T15:01:27.617Z,14.90
2023-03-16T15:03:54.481Z,14.90
2023-03-16T15:06:21.483Z,14.90
2023-03-16T15:08:48.757Z,14.80
2023-03-16T15:11:21.210Z,14.80
2023-03-16T15:13:51.350Z,14.80
2023-03-16T15:16:20.057Z,14.80
2023-03-16T15:18:46.582Z,14.70
2023-03-16T15:21:20.592Z,14.70
2023-03-16T15:23:47.843Z,14.50
2023-03-16T15:26:16.493Z,14.60
2023-03-16T15:28:43.022Z,14.60
2023-03-16T15:31:14.291Z,14.70
2023-03-16T15:33:41.496Z,14.60
2023-03-16T15:36:22.170Z,14.50
2023-03-16T15:38:52.912Z,14.40
2023-03-16T15:41:19.555Z,14.30
2023-03-16T15:43:46.309Z,14.10
2023-03-16T15:46:13.500Z,14.10
2023-03-16T15:48:40.395Z,14.00
2023-03-16T15:51:26.320Z,14.10
2023-03-16T15:53:59.450Z,14.00
2023-03-16T15:56:30.202Z,14.00
2023-03-16T15:59:02.447Z,13.90
2023-03-16T16:01:34.777Z,13.80
2023-03-16T16:04:01.674Z,13.80
2023-03-16T16:06:30.292Z,13.80
2023-03-16T16:08:57.312Z,13.70
2023-03-16T16:11:26.332Z,13.70
2023-03-16T16:13:55.759Z,13.50
2023-03-16T16:16:23.515Z,13.50
2023-03-16T16:18:50.165Z,13.50
2023-03-16T16:21:19.366Z,13.40
2023-03-16T16:23:46.465Z,13.40
2023-03-16T16:26:54.171Z,13.30
2023-03-16T16:29:30.067Z,13.20
2023-03-16T16:31:56.740Z,13.10
2023-03-16T16:34:24.910Z,13.10
2023-03-16T16:36:52.425Z,13.00
2023-03-16T16:39:19.028Z,13.00
2023-03-16T16:41:45.987Z,13.10
2023-03-16T16:44:39.046Z,13.00
2023-03-16T16:47:17.505Z,13.00
2023-03-16T16:49:43.952Z,13.00
2023-03-16T16:52:16.803Z,13.00
2023-03-16T16:54:43.291Z,12.90
2023-03-16T16:57:18.306Z,12.90
2023-03-16T16:59:47.889Z,12.90
2023-03-16T17:02:31.856Z,12.80
2023-03-16T17:04:58.634Z,12.70
2023-03-16T17:07:25.749Z,12.60
2023-03-16T17:09:52.238Z,12.60
2023-03-16T17:12:22.271Z,12.60
2023-03-16T17:14:49.560Z,12.40
2023-03-16T17:17:17.805Z,12.30
2023-03-16T17:19:49.120Z,12.20
2023-03-16T17:22:22.814Z,12.10
2023-03-16T17:24:49.681Z,12.00
2023-03-16T17:27:20.193Z,11.90
2023-03-16T17:29:46.864Z,11.90
2023-03-16T17:32:22.755Z,11.80
2023-03-16T17:34:50.817Z,11.80
2023-03-16T17:37:19.722Z,11.70
2023-03-16T17:39:46.426Z,11.60
2023-03-16T17:42:17.563Z,11.50
2023-03-16T17:44:47.186Z,11.50
2023-03-16T17:47:16.244Z,11.50
2023-03-16T17:49:44.793Z,11.40
2023-03-16T17:52:18.232Z,11.30
2023-03-16T17:54:48.786Z,11.30
2023-03-16T17:57:22.557Z,11.20
2023-03-16T17:59:49.094Z,11.20
2023-03-16T18:02:39.986Z,11.20
2023-03-16T18:05:15.516Z,11.10
2023-03-16T18:07:42.214Z,11.10
2023-03-16T18:10:21.107Z,11.00
2023-03-16T18:12:52.607Z,11.00
2023-03-16T18:15:21.636Z,10.90
2023-03-16T18:17:49.935Z,10.90
2023-03-16T18:20:28.194Z,10.80
2023-03-16T18:22:56.121Z,10.80
2023-03-16T18:25:34.710Z,10.70
2023-03-16T18:28:01.732Z,10.60
2023-03-16T18:30:30.012Z,10.60
2023-03-16T18:32:57.649Z,10.70
2023-03-16T18:35:25.798Z,10.60
2023-03-16T18:37:54.858Z,10.60
2023-03-16T18:40:23.617Z,10.50
2023-03-16T18:42:51.408Z,10.50
2023-03-16T18:45:18.014Z,10.40
2023-03-16T18:47:50.456Z,10.50
2023-03-16T18:50:23.755Z,10.60
2023-03-16T18:52:51.551Z,10.50
2023-03-16T18:55:23.961Z,10.40
2023-03-16T18:57:52.744Z,10.30
2023-03-16T19:00:22.263Z,10.30
2023-03-16T19:02:53.282Z,10.30
2023-03-16T19:05:26.263Z,10.30
2023-03-16T19:07:52.921Z,10.20
2023-03-16T19:10:30.332Z,10.10
2023-03-16T19:12:56.885Z,10.10
2023-03-16T19:15:30.595Z,10.00
2023-03-16T19:17:58.054Z,10.00
2023-03-16T19:20:28.339Z,9.90
2023-03-16T19:23:13.710Z,9.90
2023-03-16T19:25:41.572Z,9.90
2023-03-16T19:28:14.675Z,9.90
2023-03-16T19:30:41.453Z,9.80
2023-03-16T19:33:18.606Z,9.80
2023-03-16T19:35:55.428Z,9.70
2023-03-16T19:38:24.067Z,9.80
2023-03-16T19:41:00.427Z,9.70
2023-03-16T19:43:28.659Z,9.70
2023-03-16T19:45:56.445Z,9.70
2023-03-16T19:48:32.936Z,9.60
2023-03-16T19:50:59.719Z,9.50
2023-03-16T19:53:27.290Z,9.40
2023-03-16T19:55:54.114Z,9.20
2023-03-16T19:58:40.184Z,9.10
2023-03-16T20:01:17.658Z,9.10
2023-03-16T20:03:46.377Z,9.00
2023-03-16T20:06:21.776Z,9.00
2023-03-16T20:08:50.531Z,9.10
2023-03-16T20:11:27.194Z,9.10
2023-03-16T20:13:54.450Z,9.10
2023-03-16T20:16:29.030Z,9.10
2023-03-16T20:18:57.643Z,9.20
2023-03-16T20:21:24.885Z,9.20
2023-03-16T20:23:52.758Z,9.10
2023-03-16T20:26:27.274Z,9.00
2023-03-16T20:28:53.837Z,9.00
2023-03-16T20:31:29.655Z,8.90
2023-03-16T20:33:56.342Z,8.80
2023-03-16T20:36:23.380Z,8.90
2023-03-16T20:38:50.249Z,8.90
2023-03-16T20:41:32.206Z,8.90
2023-03-16T20:44:00.547Z,8.90
2023-03-16T20:46:32.267Z,8.90
2023-03-16T20:49:00.609Z,8.80
2023-03-16T20:51:28.865Z,8.70
2023-03-16T20:53:56.896Z,8.70
2023-03-16T20:56:26.715Z,8.70
2023-03-16T20:58:55.947Z,8.70
2023-03-16T21:01:24.493Z,8.70
2023-03-16T21:03:55.093Z,8.50
2023-03-16T21:06:28.418Z,8.50
2023-03-16T21:08:57.279Z,8.60
2023-03-16T21:11:36.813Z,8.50
2023-03-16T21:14:05.002Z,8.30
2023-03-16T21:16:31.727Z,8.30
2023-03-16T21:18:58.212Z,8.30
2023-03-16T21:21:24.879Z,8.30
2023-03-16T21:23:51.485Z,8.30
2023-03-16T21:26:24.816Z,8.30
2023-03-16T21:28:56.612Z,8.30
2023-03-16T21:31:24.388Z,8.30
2023-03-16T21:33:53.776Z,8.30
2023-03-16T21:36:23.788Z,8.30
2023-03-16T21:38:52.304Z,8.20
2023-03-16T21:41:19.568Z,8.30
2023-03-16T21:43:47.123Z,8.40
2023-03-16T21:46:17.681Z,8.40
2023-03-16T21:48:46.158Z,8.30
2023-03-16T21:51:20.075Z,8.10
2023-03-16T21:53:48.755Z,8.00
2023-03-16T21:56:18.242Z,7.90
2023-03-16T21:58:46.481Z,7.80
2023-03-16T22:01:19.867Z,7.80
2023-03-16T22:03:50.983Z,7.80
2023-03-16T22:06:18.049Z,7.70
2023-03-16T22:08:44.730Z,7.60
2023-03-16T22:11:16.697Z,7.60
2023-03-16T22:13:43.261Z,7.50
2023-03-16T22:16:19.075Z,7.60
2023-03-16T22:18:47.997Z,7.70
2023-03-16T22:21:32.608Z,7.80
2023-03-16T22:24:00.094Z,7.80
2023-03-16T22:26:28.650Z,7.80
2023-03-16T22:28:56.931Z,7.70
2023-03-16T22:31:34.232Z,7.70
2023-03-16T22:34:03.335Z,7.70
2023-03-16T22:36:31.452Z,7.60
2023-03-16T22:39:12.203Z,7.60
2023-03-16T22:41:38.818Z,7.40
2023-03-16T22:44:05.642Z,7.40
2023-03-16T22:46:32.184Z,7.30
2023-03-16T22:48:58.794Z,7.30
2023-03-16T22:51:52.045Z,7.30
2023-03-16T22:54:23.120Z,7.30
2023-03-16T22:56:50.045Z,7.30
2023-03-16T22:59:20.766Z,7.20
2023-03-16T23:01:49.713Z,7.20
2023-03-16T23:04:32.269Z,7.20
2023-03-16T23:06:59.307Z,7.30
2023-03-16T23:09:26.203Z,7.50
2023-03-16T23:11:54.562Z,7.50
2023-03-16T23:14:28.769Z,7.50
2023-03-16T23:16:55.304Z,7.60
2023-03-16T23:19:29.577Z,7.50
2023-03-16T23:22:00.228Z,7.30
2023-03-16T23:24:26.762Z,7.30
2023-03-16T23:26:54.400Z,7.30
2023-03-16T23:29:22.420Z,7.40
2023-03-16T23:31:49.209Z,7.40
2023-03-16T23:34:18.738Z,7.40
2023-03-16T23:36:45.802Z,7.40
2023-03-16T23:39:12.510Z,7.40
2023-03-16T23:41:42.020Z,7.40
2023-03-16T23:44:11.468Z,7.40
2023-03-16T23:46:37.973Z,7.40
2023-03-16T23:49:05.603Z,7.40
2023-03-16T23:51:36.975Z,7.40
2023-03-16T23:54:27.541Z,7.30
2023-03-16T23:56:54.295Z,7.20
2023-03-16T23:59:21.402Z,7.20
